Nashville, Tennessee
Traffic Map
Current Weather Conditions
Nashville, Tennessee
Few Clouds
Few Clouds
79°
Feels Like: 80°
Wind Chill: 79° Ceiling: Unl
Heat Index: 80° Visibility: 10mi
Dew Point: 58° Wind: 9mph
Humidity: 48% Direction: 150° (SSE)
Pressure: 29.9in Gusts: 0mph
Raw Report DataKBNA 292253Z 15008KT 10SM FEW055 FEW250 26/14 A2990 RMK AO2 SLP122 T02610144
Traffic Incident Summary
Active as of:
Severity:
Category:
InformationThere was an issue retrieving the traffic information for this location. Please try a different location or try again shortly.
Advertisements
Track Severe Weather on mobile